sensor_id;sensor_type;location;lat;lon;timestamp;P1;durP1;ratioP1;P2;durP2;ratioP2
59016;SDS011;44800;55.600;38.134;2023-08-06T00:01:57;85.43;;;42.25;;
59016;SDS011;44800;55.600;38.134;2023-08-06T00:04:25;83.45;;;45.33;;
59016;SDS011;44800;55.600;38.134;2023-08-06T00:06:54;87.13;;;45.00;;
59016;SDS011;44800;55.600;38.134;2023-08-06T00:09:23;89.60;;;45.90;;
59016;SDS011;44800;55.600;38.134;2023-08-06T00:11:51;90.13;;;47.22;;
59016;SDS011;44800;55.600;38.134;2023-08-06T00:14:22;93.85;;;49.85;;
59016;SDS011;44800;55.600;38.134;2023-08-06T00:16:50;86.93;;;48.60;;
59016;SDS011;44800;55.600;38.134;2023-08-06T00:19:19;98.32;;;50.85;;
59016;SDS011;44800;55.600;38.134;2023-08-06T00:21:47;82.18;;;43.22;;
59016;SDS011;44800;55.600;38.134;2023-08-06T00:24:16;78.43;;;43.40;;
59016;SDS011;44800;55.600;38.134;2023-08-06T00:26:45;83.75;;;44.67;;
59016;SDS011;44800;55.600;38.134;2023-08-06T00:29:13;76.80;;;44.30;;
59016;SDS011;44800;55.600;38.134;2023-08-06T00:31:43;85.75;;;43.33;;
59016;SDS011;44800;55.600;38.134;2023-08-06T00:34:11;83.32;;;44.25;;
59016;SDS011;44800;55.600;38.134;2023-08-06T00:36:40;72.75;;;40.08;;
59016;SDS011;44800;55.600;38.134;2023-08-06T00:39:08;86.78;;;42.60;;
59016;SDS011;44800;55.600;38.134;2023-08-06T00:41:37;74.03;;;39.72;;
59016;SDS011;44800;55.600;38.134;2023-08-06T00:44:05;67.85;;;36.63;;
59016;SDS011;44800;55.600;38.134;2023-08-06T00:46:34;74.78;;;41.08;;
59016;SDS011;44800;55.600;38.134;2023-08-06T00:49:04;72.97;;;38.47;;
59016;SDS011;44800;55.600;38.134;2023-08-06T00:51:33;71.32;;;38.40;;
59016;SDS011;44800;55.600;38.134;2023-08-06T00:54:02;83.22;;;41.15;;
59016;SDS011;44800;55.600;38.134;2023-08-06T00:56:31;70.07;;;37.97;;
59016;SDS011;44800;55.600;38.134;2023-08-06T00:58:59;80.53;;;39.30;;
59016;SDS011;44800;55.600;38.134;2023-08-06T01:01:28;82.28;;;39.88;;
59016;SDS011;44800;55.600;38.134;2023-08-06T01:03:57;74.85;;;38.58;;
59016;SDS011;44800;55.600;38.134;2023-08-06T01:06:29;76.97;;;39.55;;
59016;SDS011;44800;55.600;38.134;2023-08-06T01:09:05;66.93;;;38.33;;
59016;SDS011;44800;55.600;38.134;2023-08-06T01:11:38;68.88;;;38.38;;
59016;SDS011;44800;55.600;38.134;2023-08-06T01:14:13;72.97;;;39.78;;
59016;SDS011;44800;55.600;38.134;2023-08-06T01:16:48;67.82;;;36.33;;
59016;SDS011;44800;55.600;38.134;2023-08-06T01:19:17;68.60;;;35.47;;
59016;SDS011;44800;55.600;38.134;2023-08-06T01:21:47;79.68;;;35.80;;
59016;SDS011;44800;55.600;38.134;2023-08-06T01:24:16;67.85;;;36.92;;
59016;SDS011;44800;55.600;38.134;2023-08-06T01:26:45;69.05;;;35.45;;
59016;SDS011;44800;55.600;38.134;2023-08-06T01:29:20;67.70;;;35.20;;
59016;SDS011;44800;55.600;38.134;2023-08-06T01:31:51;67.23;;;35.47;;
59016;SDS011;44800;55.600;38.134;2023-08-06T01:34:21;69.57;;;37.00;;
59016;SDS011;44800;55.600;38.134;2023-08-06T01:36:53;75.10;;;36.63;;
59016;SDS011;44800;55.600;38.134;2023-08-06T01:39:21;68.30;;;37.08;;
59016;SDS011;44800;55.600;38.134;2023-08-06T01:41:50;72.53;;;37.45;;
59016;SDS011;44800;55.600;38.134;2023-08-06T01:44:19;72.70;;;36.67;;
59016;SDS011;44800;55.600;38.134;2023-08-06T01:46:48;76.70;;;37.50;;
59016;SDS011;44800;55.600;38.134;2023-08-06T01:49:16;71.10;;;37.92;;
59016;SDS011;44800;55.600;38.134;2023-08-06T01:51:45;69.78;;;37.03;;
59016;SDS011;44800;55.600;38.134;2023-08-06T01:54:15;65.95;;;35.42;;
59016;SDS011;44800;55.600;38.134;2023-08-06T01:56:43;92.65;;;47.08;;
59016;SDS011;44800;55.600;38.134;2023-08-06T01:59:11;59.58;;;33.78;;
59016;SDS011;44800;55.600;38.134;2023-08-06T02:01:40;63.25;;;34.55;;
59016;SDS011;44800;55.600;38.134;2023-08-06T02:04:08;75.75;;;36.88;;
59016;SDS011;44800;55.600;38.134;2023-08-06T02:06:37;78.93;;;42.22;;
59016;SDS011;44800;55.600;38.134;2023-08-06T02:09:05;86.45;;;51.75;;
59016;SDS011;44800;55.600;38.134;2023-08-06T02:11:35;70.97;;;40.90;;
59016;SDS011;44800;55.600;38.134;2023-08-06T02:14:04;75.13;;;39.08;;
59016;SDS011;44800;55.600;38.134;2023-08-06T02:16:33;72.90;;;37.40;;
59016;SDS011;44800;55.600;38.134;2023-08-06T02:19:02;69.72;;;37.83;;
59016;SDS011;44800;55.600;38.134;2023-08-06T02:21:32;79.28;;;39.83;;
59016;SDS011;44800;55.600;38.134;2023-08-06T02:24:01;61.00;;;35.28;;
59016;SDS011;44800;55.600;38.134;2023-08-06T02:26:29;66.05;;;35.30;;
59016;SDS011;44800;55.600;38.134;2023-08-06T02:28:59;82.88;;;42.83;;
59016;SDS011;44800;55.600;38.134;2023-08-06T02:31:27;64.10;;;32.83;;
59016;SDS011;44800;55.600;38.134;2023-08-06T02:33:56;61.13;;;30.52;;
59016;SDS011;44800;55.600;38.134;2023-08-06T02:36:25;67.57;;;35.85;;
59016;SDS011;44800;55.600;38.134;2023-08-06T02:55:03;51.17;;;30.17;;
59016;SDS011;44800;55.600;38.134;2023-08-06T02:57:33;50.40;;;30.60;;
59016;SDS011;44800;55.600;38.134;2023-08-06T03:00:01;52.90;;;30.30;;
59016;SDS011;44800;55.600;38.134;2023-08-06T03:02:31;47.45;;;29.92;;
59016;SDS011;44800;55.600;38.134;2023-08-06T03:04:59;57.33;;;30.70;;
59016;SDS011;44800;55.600;38.134;2023-08-06T03:07:29;55.72;;;30.52;;
59016;SDS011;44800;55.600;38.134;2023-08-06T03:09:58;49.70;;;29.00;;
59016;SDS011;44800;55.600;38.134;2023-08-06T03:12:29;51.35;;;26.55;;
59016;SDS011;44800;55.600;38.134;2023-08-06T03:14:57;56.92;;;28.50;;
59016;SDS011;44800;55.600;38.134;2023-08-06T03:17:26;68.57;;;30.92;;
59016;SDS011;44800;55.600;38.134;2023-08-06T03:19:54;50.45;;;24.17;;
59016;SDS011;44800;55.600;38.134;2023-08-06T03:22:22;60.72;;;28.25;;
59016;SDS011;44800;55.600;38.134;2023-08-06T03:24:51;77.88;;;36.58;;
59016;SDS011;44800;55.600;38.134;2023-08-06T03:27:20;51.88;;;25.48;;
59016;SDS011;44800;55.600;38.134;2023-08-06T03:29:50;139.10;;;63.17;;
59016;SDS011;44800;55.600;38.134;2023-08-06T03:32:19;48.70;;;29.05;;
59016;SDS011;44800;55.600;38.134;2023-08-06T03:34:47;53.33;;;27.48;;
59016;SDS011;44800;55.600;38.134;2023-08-06T03:37:16;50.65;;;25.08;;
59016;SDS011;44800;55.600;38.134;2023-08-06T03:39:44;52.75;;;27.48;;
59016;SDS011;44800;55.600;38.134;2023-08-06T03:42:13;51.90;;;26.00;;
59016;SDS011;44800;55.600;38.134;2023-08-06T03:44:41;50.75;;;24.75;;
59016;SDS011;44800;55.600;38.134;2023-08-06T03:47:11;55.95;;;25.02;;
59016;SDS011;44800;55.600;38.134;2023-08-06T03:49:39;45.15;;;25.02;;
59016;SDS011;44800;55.600;38.134;2023-08-06T03:52:08;147.82;;;66.65;;
59016;SDS011;44800;55.600;38.134;2023-08-06T03:54:36;41.80;;;22.17;;
59016;SDS011;44800;55.600;38.134;2023-08-06T03:57:06;48.90;;;23.30;;
59016;SDS011;44800;55.600;38.134;2023-08-06T03:59:35;45.50;;;23.08;;
59016;SDS011;44800;55.600;38.134;2023-08-06T04:02:04;45.17;;;22.67;;
59016;SDS011;44800;55.600;38.134;2023-08-06T04:04:33;51.03;;;23.70;;
59016;SDS011;44800;55.600;38.134;2023-08-06T04:07:02;43.63;;;21.25;;
59016;SDS011;44800;55.600;38.134;2023-08-06T04:09:31;48.47;;;22.52;;
59016;SDS011;44800;55.600;38.134;2023-08-06T04:11:59;47.65;;;21.30;;
59016;SDS011;44800;55.600;38.134;2023-08-06T04:14:29;45.42;;;21.15;;
59016;SDS011;44800;55.600;38.134;2023-08-06T04:16:57;57.72;;;20.25;;
59016;SDS011;44800;55.600;38.134;2023-08-06T04:19:26;43.60;;;20.67;;
59016;SDS011;44800;55.600;38.134;2023-08-06T04:21:56;40.28;;;20.38;;
59016;SDS011;44800;55.600;38.134;2023-08-06T04:24:24;46.22;;;22.15;;
59016;SDS011;44800;55.600;38.134;2023-08-06T04:26:52;55.33;;;20.67;;
59016;SDS011;44800;55.600;38.134;2023-08-06T04:29:21;57.10;;;22.23;;
59016;SDS011;44800;55.600;38.134;2023-08-06T04:31:49;45.85;;;21.38;;
59016;SDS011;44800;55.600;38.134;2023-08-06T04:34:18;52.35;;;21.90;;
59016;SDS011;44800;55.600;38.134;2023-08-06T04:36:47;47.97;;;21.73;;
59016;SDS011;44800;55.600;38.134;2023-08-06T04:39:17;45.58;;;20.45;;
59016;SDS011;44800;55.600;38.134;2023-08-06T04:41:46;48.53;;;21.92;;
59016;SDS011;44800;55.600;38.134;2023-08-06T04:44:14;45.50;;;20.83;;
59016;SDS011;44800;55.600;38.134;2023-08-06T04:46:43;41.55;;;20.58;;
59016;SDS011;44800;55.600;38.134;2023-08-06T04:49:11;40.97;;;19.52;;
59016;SDS011;44800;55.600;38.134;2023-08-06T04:51:40;43.17;;;21.33;;
59016;SDS011;44800;55.600;38.134;2023-08-06T04:54:08;40.55;;;21.85;;
59016;SDS011;44800;55.600;38.134;2023-08-06T04:56:39;39.95;;;20.48;;
59016;SDS011;44800;55.600;38.134;2023-08-06T04:59:07;37.15;;;20.90;;
59016;SDS011;44800;55.600;38.134;2023-08-06T05:01:35;62.63;;;31.05;;
59016;SDS011;44800;55.600;38.134;2023-08-06T05:04:05;32.60;;;19.00;;
59016;SDS011;44800;55.600;38.134;2023-08-06T05:06:33;43.85;;;20.33;;
59016;SDS011;44800;55.600;38.134;2023-08-06T05:09:02;42.03;;;20.33;;
59016;SDS011;44800;55.600;38.134;2023-08-06T05:11:30;42.22;;;19.80;;
59016;SDS011;44800;55.600;38.134;2023-08-06T05:14:00;45.10;;;21.75;;
59016;SDS011;44800;55.600;38.134;2023-08-06T05:16:28;43.65;;;21.27;;
59016;SDS011;44800;55.600;38.134;2023-08-06T05:18:57;42.80;;;22.13;;
59016;SDS011;44800;55.600;38.134;2023-08-06T05:21:25;39.08;;;19.50;;
59016;SDS011;44800;55.600;38.134;2023-08-06T05:23:54;46.20;;;23.58;;
59016;SDS011;44800;55.600;38.134;2023-08-06T05:26:22;36.47;;;19.02;;
59016;SDS011;44800;55.600;38.134;2023-08-06T05:28:51;75.55;;;33.42;;
59016;SDS011;44800;55.600;38.134;2023-08-06T05:31:20;54.28;;;24.98;;
59016;SDS011;44800;55.600;38.134;2023-08-06T05:33:49;35.28;;;19.70;;
59016;SDS011;44800;55.600;38.134;2023-08-06T05:36:18;34.30;;;17.45;;
59016;SDS011;44800;55.600;38.134;2023-08-06T05:38:47;32.53;;;19.30;;
59016;SDS011;44800;55.600;38.134;2023-08-06T05:41:16;73.68;;;34.92;;
59016;SDS011;44800;55.600;38.134;2023-08-06T05:43:44;43.78;;;19.73;;
59016;SDS011;44800;55.600;38.134;2023-08-06T05:46:13;31.08;;;16.83;;
59016;SDS011;44800;55.600;38.134;2023-08-06T05:48:43;35.90;;;17.95;;
59016;SDS011;44800;55.600;38.134;2023-08-06T05:51:11;29.02;;;17.30;;
59016;SDS011;44800;55.600;38.134;2023-08-06T05:53:40;35.40;;;21.52;;
59016;SDS011;44800;55.600;38.134;2023-08-06T05:56:08;36.38;;;17.35;;
59016;SDS011;44800;55.600;38.134;2023-08-06T05:58:36;32.28;;;17.60;;
59016;SDS011;44800;55.600;38.134;2023-08-06T06:01:05;28.77;;;18.50;;
59016;SDS011;44800;55.600;38.134;2023-08-06T06:03:33;34.60;;;17.13;;
59016;SDS011;44800;55.600;38.134;2023-08-06T06:06:03;27.73;;;17.63;;
59016;SDS011;44800;55.600;38.134;2023-08-06T06:08:32;42.45;;;19.27;;
59016;SDS011;44800;55.600;38.134;2023-08-06T06:11:01;32.78;;;18.88;;
59016;SDS011;44800;55.600;38.134;2023-08-06T06:13:29;32.65;;;18.48;;
59016;SDS011;44800;55.600;38.134;2023-08-06T06:15:58;35.58;;;20.25;;
59016;SDS011;44800;55.600;38.134;2023-08-06T06:18:26;132.48;;;73.68;;
59016;SDS011;44800;55.600;38.134;2023-08-06T06:20:54;35.85;;;19.25;;
59016;SDS011;44800;55.600;38.134;2023-08-06T06:23:24;30.50;;;16.30;;
59016;SDS011;44800;55.600;38.134;2023-08-06T06:25:53;31.90;;;16.77;;
59016;SDS011;44800;55.600;38.134;2023-08-06T06:28:22;28.35;;;17.92;;
59016;SDS011;44800;55.600;38.134;2023-08-06T06:30:51;47.25;;;25.98;;
59016;SDS011;44800;55.600;38.134;2023-08-06T06:33:19;36.80;;;18.05;;
59016;SDS011;44800;55.600;38.134;2023-08-06T06:35:48;79.65;;;45.58;;
59016;SDS011;44800;55.600;38.134;2023-08-06T06:38:18;102.85;;;61.22;;
59016;SDS011;44800;55.600;38.134;2023-08-06T06:40:54;32.97;;;18.95;;
59016;SDS011;44800;55.600;38.134;2023-08-06T06:43:23;24.80;;;16.33;;
59016;SDS011;44800;55.600;38.134;2023-08-06T06:45:52;36.47;;;17.27;;
59016;SDS011;44800;55.600;38.134;2023-08-06T06:48:21;24.20;;;14.55;;
59016;SDS011;44800;55.600;38.134;2023-08-06T06:50:50;33.70;;;16.48;;
59016;SDS011;44800;55.600;38.134;2023-08-06T06:53:18;23.80;;;15.10;;
59016;SDS011;44800;55.600;38.134;2023-08-06T06:55:47;24.77;;;15.05;;
59016;SDS011;44800;55.600;38.134;2023-08-06T06:58:17;29.05;;;16.27;;
59016;SDS011;44800;55.600;38.134;2023-08-06T07:00:45;40.72;;;23.88;;
59016;SDS011;44800;55.600;38.134;2023-08-06T07:03:14;32.60;;;17.63;;
59016;SDS011;44800;55.600;38.134;2023-08-06T07:05:43;42.78;;;24.45;;
59016;SDS011;44800;55.600;38.134;2023-08-06T07:08:12;24.67;;;14.98;;
59016;SDS011;44800;55.600;38.134;2023-08-06T07:10:41;29.08;;;14.10;;
59016;SDS011;44800;55.600;38.134;2023-08-06T07:13:10;25.55;;;14.70;;
59016;SDS011;44800;55.600;38.134;2023-08-06T07:15:40;84.00;;;51.55;;
59016;SDS011;44800;55.600;38.134;2023-08-06T07:18:09;23.48;;;14.30;;
59016;SDS011;44800;55.600;38.134;2023-08-06T07:20:37;33.00;;;19.52;;
59016;SDS011;44800;55.600;38.134;2023-08-06T07:23:06;24.80;;;14.68;;
59016;SDS011;44800;55.600;38.134;2023-08-06T07:25:34;39.38;;;18.25;;
59016;SDS011;44800;55.600;38.134;2023-08-06T07:28:03;22.65;;;14.23;;
59016;SDS011;44800;55.600;38.134;2023-08-06T07:30:31;19.95;;;13.60;;
59016;SDS011;44800;55.600;38.134;2023-08-06T07:33:01;26.58;;;13.10;;
59016;SDS011;44800;55.600;38.134;2023-08-06T07:35:30;22.65;;;13.13;;
59016;SDS011;44800;55.600;38.134;2023-08-06T07:37:58;18.80;;;12.20;;
59016;SDS011;44800;55.600;38.134;2023-08-06T07:40:27;25.40;;;14.98;;
59016;SDS011;44800;55.600;38.134;2023-08-06T07:42:55;25.45;;;13.25;;
59016;SDS011;44800;55.600;38.134;2023-08-06T07:45:24;24.27;;;12.73;;
59016;SDS011;44800;55.600;38.134;2023-08-06T07:47:54;20.63;;;12.60;;
59016;SDS011;44800;55.600;38.134;2023-08-06T07:50:24;26.02;;;17.40;;
59016;SDS011;44800;55.600;38.134;2023-08-06T07:52:53;22.52;;;14.38;;
59016;SDS011;44800;55.600;38.134;2023-08-06T07:55:21;20.58;;;11.98;;
59016;SDS011;44800;55.600;38.134;2023-08-06T07:57:50;20.50;;;13.18;;
59016;SDS011;44800;55.600;38.134;2023-08-06T08:00:19;20.48;;;13.27;;
59016;SDS011;44800;55.600;38.134;2023-08-06T08:02:47;19.45;;;12.18;;
59016;SDS011;44800;55.600;38.134;2023-08-06T08:05:16;23.88;;;12.43;;
59016;SDS011;44800;55.600;38.134;2023-08-06T08:07:46;18.80;;;12.23;;
59016;SDS011;44800;55.600;38.134;2023-08-06T08:10:14;20.88;;;12.90;;
59016;SDS011;44800;55.600;38.134;2023-08-06T08:12:43;19.05;;;13.70;;
59016;SDS011;44800;55.600;38.134;2023-08-06T08:15:14;17.63;;;11.57;;
59016;SDS011;44800;55.600;38.134;2023-08-06T08:17:43;18.65;;;12.77;;
59016;SDS011;44800;55.600;38.134;2023-08-06T08:20:15;20.33;;;12.13;;
59016;SDS011;44800;55.600;38.134;2023-08-06T08:22:45;21.27;;;12.30;;
59016;SDS011;44800;55.600;38.134;2023-08-06T08:25:15;16.35;;;11.05;;
59016;SDS011;44800;55.600;38.134;2023-08-06T08:27:43;21.92;;;13.45;;
59016;SDS011;44800;55.600;38.134;2023-08-06T08:30:12;35.72;;;14.18;;
59016;SDS011;44800;55.600;38.134;2023-08-06T08:32:40;22.05;;;12.43;;
59016;SDS011;44800;55.600;38.134;2023-08-06T08:35:09;21.40;;;12.00;;
59016;SDS011;44800;55.600;38.134;2023-08-06T08:37:39;22.67;;;11.13;;
59016;SDS011;44800;55.600;38.134;2023-08-06T08:40:09;17.23;;;10.52;;
59016;SDS011;44800;55.600;38.134;2023-08-06T08:42:38;15.10;;;11.10;;
59016;SDS011;44800;55.600;38.134;2023-08-06T08:45:07;21.75;;;11.70;;
59016;SDS011;44800;55.600;38.134;2023-08-06T08:47:40;19.08;;;11.57;;
59016;SDS011;44800;55.600;38.134;2023-08-06T08:50:10;18.63;;;12.25;;
59016;SDS011;44800;55.600;38.134;2023-08-06T08:52:40;18.65;;;11.23;;
59016;SDS011;44800;55.600;38.134;2023-08-06T08:55:11;24.08;;;13.13;;
59016;SDS011;44800;55.600;38.134;2023-08-06T08:57:40;18.27;;;11.13;;
59016;SDS011;44800;55.600;38.134;2023-08-06T09:00:09;17.88;;;10.90;;
59016;SDS011;44800;55.600;38.134;2023-08-06T09:02:37;20.30;;;12.18;;
59016;SDS011;44800;55.600;38.134;2023-08-06T09:05:06;22.60;;;11.20;;
59016;SDS011;44800;55.600;38.134;2023-08-06T09:07:35;21.35;;;12.30;;
59016;SDS011;44800;55.600;38.134;2023-08-06T09:10:12;20.92;;;12.20;;
59016;SDS011;44800;55.600;38.134;2023-08-06T09:12:42;23.38;;;13.02;;
59016;SDS011;44800;55.600;38.134;2023-08-06T09:15:11;16.27;;;12.95;;
59016;SDS011;44800;55.600;38.134;2023-08-06T09:17:40;22.38;;;13.18;;
59016;SDS011;44800;55.600;38.134;2023-08-06T09:20:09;25.30;;;13.73;;
59016;SDS011;44800;55.600;38.134;2023-08-06T09:22:39;19.88;;;13.07;;
59016;SDS011;44800;55.600;38.134;2023-08-06T09:25:09;24.63;;;14.30;;
59016;SDS011;44800;55.600;38.134;2023-08-06T09:27:39;20.60;;;12.50;;
59016;SDS011;44800;55.600;38.134;2023-08-06T09:30:07;24.23;;;13.52;;
59016;SDS011;44800;55.600;38.134;2023-08-06T09:32:44;21.10;;;13.68;;
59016;SDS011;44800;55.600;38.134;2023-08-06T09:35:17;21.50;;;14.15;;
59016;SDS011;44800;55.600;38.134;2023-08-06T09:37:46;21.65;;;13.43;;
59016;SDS011;44800;55.600;38.134;2023-08-06T09:43:02;21.65;;;11.80;;
59016;SDS011;44800;55.600;38.134;2023-08-06T09:45:33;19.65;;;12.55;;
59016;SDS011;44800;55.600;38.134;2023-08-06T09:48:02;18.60;;;12.02;;
59016;SDS011;44800;55.600;38.134;2023-08-06T09:50:32;21.98;;;12.23;;
59016;SDS011;44800;55.600;38.134;2023-08-06T09:53:04;18.73;;;12.65;;
59016;SDS011;44800;55.600;38.134;2023-08-06T09:55:33;15.25;;;11.57;;
59016;SDS011;44800;55.600;38.134;2023-08-06T09:58:03;18.73;;;12.00;;
59016;SDS011;44800;55.600;38.134;2023-08-06T10:00:33;17.73;;;12.48;;
59016;SDS011;44800;55.600;38.134;2023-08-06T10:03:05;16.23;;;10.90;;
59016;SDS011;44800;55.600;38.134;2023-08-06T10:05:35;19.95;;;11.88;;
59016;SDS011;44800;55.600;38.134;2023-08-06T10:08:05;16.35;;;12.48;;
59016;SDS011;44800;55.600;38.134;2023-08-06T10:10:35;19.65;;;12.98;;
59016;SDS011;44800;55.600;38.134;2023-08-06T10:13:04;16.23;;;11.52;;
59016;SDS011;44800;55.600;38.134;2023-08-06T10:15:34;16.20;;;11.43;;
59016;SDS011;44800;55.600;38.134;2023-08-06T10:18:05;19.30;;;12.23;;
59016;SDS011;44800;55.600;38.134;2023-08-06T10:20:34;18.80;;;12.43;;
59016;SDS011;44800;55.600;38.134;2023-08-06T10:23:03;18.52;;;11.27;;
59016;SDS011;44800;55.600;38.134;2023-08-06T10:25:33;18.17;;;11.55;;
59016;SDS011;44800;55.600;38.134;2023-08-06T10:28:08;16.27;;;11.00;;
59016;SDS011;44800;55.600;38.134;2023-08-06T10:30:44;15.15;;;12.38;;
59016;SDS011;44800;55.600;38.134;2023-08-06T10:33:13;17.40;;;12.45;;
59016;SDS011;44800;55.600;38.134;2023-08-06T10:35:43;17.13;;;11.85;;
59016;SDS011;44800;55.600;38.134;2023-08-06T10:38:16;18.17;;;12.23;;
59016;SDS011;44800;55.600;38.134;2023-08-06T10:40:48;13.80;;;11.68;;
59016;SDS011;44800;55.600;38.134;2023-08-06T10:43:28;16.70;;;12.23;;
59016;SDS011;44800;55.600;38.134;2023-08-06T10:45:58;14.90;;;11.15;;
59016;SDS011;44800;55.600;38.134;2023-08-06T10:48:30;15.57;;;11.20;;
59016;SDS011;44800;55.600;38.134;2023-08-06T10:51:00;17.35;;;11.82;;
59016;SDS011;44800;55.600;38.134;2023-08-06T10:53:29;12.75;;;10.23;;
59016;SDS011;44800;55.600;38.134;2023-08-06T10:56:01;15.20;;;11.73;;
59016;SDS011;44800;55.600;38.134;2023-08-06T10:58:34;15.90;;;10.73;;
59016;SDS011;44800;55.600;38.134;2023-08-06T11:01:03;14.55;;;11.25;;
59016;SDS011;44800;55.600;38.134;2023-08-06T11:03:31;15.35;;;11.25;;
59016;SDS011;44800;55.600;38.134;2023-08-06T11:06:01;15.88;;;11.35;;
59016;SDS011;44800;55.600;38.134;2023-08-06T11:08:33;18.65;;;11.43;;
59016;SDS011;44800;55.600;38.134;2023-08-06T11:11:08;13.73;;;11.98;;
59016;SDS011;44800;55.600;38.134;2023-08-06T11:13:39;15.93;;;10.63;;
59016;SDS011;44800;55.600;38.134;2023-08-06T11:16:07;15.57;;;11.02;;
59016;SDS011;44800;55.600;38.134;2023-08-06T11:18:36;23.00;;;11.13;;
59016;SDS011;44800;55.600;38.134;2023-08-06T11:21:04;15.65;;;10.95;;
59016;SDS011;44800;55.600;38.134;2023-08-06T11:23:34;14.80;;;9.82;;
59016;SDS011;44800;55.600;38.134;2023-08-06T11:26:03;15.95;;;10.40;;
59016;SDS011;44800;55.600;38.134;2023-08-06T11:28:32;14.75;;;11.18;;
59016;SDS011;44800;55.600;38.134;2023-08-06T11:31:02;18.73;;;12.57;;
59016;SDS011;44800;55.600;38.134;2023-08-06T11:33:31;14.30;;;11.02;;
59016;SDS011;44800;55.600;38.134;2023-08-06T11:35:59;19.42;;;11.10;;
59016;SDS011;44800;55.600;38.134;2023-08-06T11:38:28;16.15;;;10.30;;
59016;SDS011;44800;55.600;38.134;2023-08-06T11:40:56;19.05;;;11.90;;
59016;SDS011;44800;55.600;38.134;2023-08-06T11:43:25;14.98;;;10.43;;
59016;SDS011;44800;55.600;38.134;2023-08-06T11:45:54;15.95;;;11.32;;
59016;SDS011;44800;55.600;38.134;2023-08-06T11:48:25;13.65;;;11.35;;
59016;SDS011;44800;55.600;38.134;2023-08-06T11:50:54;18.73;;;11.63;;
59016;SDS011;44800;55.600;38.134;2023-08-06T11:53:27;14.45;;;11.07;;
59016;SDS011;44800;55.600;38.134;2023-08-06T11:55:56;18.42;;;10.88;;
59016;SDS011;44800;55.600;38.134;2023-08-06T11:58:26;18.20;;;11.95;;
59016;SDS011;44800;55.600;38.134;2023-08-06T12:00:55;13.60;;;10.75;;
59016;SDS011;44800;55.600;38.134;2023-08-06T12:03:26;17.42;;;12.75;;
59016;SDS011;44800;55.600;38.134;2023-08-06T12:05:56;19.13;;;11.65;;
59016;SDS011;44800;55.600;38.134;2023-08-06T12:08:26;18.88;;;12.35;;
59016;SDS011;44800;55.600;38.134;2023-08-06T12:10:54;20.17;;;10.98;;
59016;SDS011;44800;55.600;38.134;2023-08-06T12:13:23;15.98;;;10.90;;
59016;SDS011;44800;55.600;38.134;2023-08-06T12:15:51;15.15;;;11.20;;
59016;SDS011;44800;55.600;38.134;2023-08-06T12:18:24;18.55;;;11.00;;
59016;SDS011;44800;55.600;38.134;2023-08-06T12:20:53;12.88;;;11.50;;
59016;SDS011;44800;55.600;38.134;2023-08-06T12:23:22;14.88;;;12.32;;
59016;SDS011;44800;55.600;38.134;2023-08-06T12:25:50;17.98;;;10.77;;
59016;SDS011;44800;55.600;38.134;2023-08-06T12:28:19;19.15;;;11.65;;
59016;SDS011;44800;55.600;38.134;2023-08-06T12:30:50;16.08;;;10.93;;
59016;SDS011;44800;55.600;38.134;2023-08-06T12:33:22;18.92;;;13.27;;
59016;SDS011;44800;55.600;38.134;2023-08-06T12:35:51;15.50;;;11.82;;
59016;SDS011;44800;55.600;38.134;2023-08-06T12:38:21;16.60;;;11.68;;
59016;SDS011;44800;55.600;38.134;2023-08-06T12:40:50;18.63;;;11.68;;
59016;SDS011;44800;55.600;38.134;2023-08-06T12:43:19;20.27;;;12.05;;
59016;SDS011;44800;55.600;38.134;2023-08-06T12:45:47;21.42;;;12.23;;
59016;SDS011;44800;55.600;38.134;2023-08-06T12:48:16;23.73;;;11.65;;
59016;SDS011;44800;55.600;38.134;2023-08-06T12:50:45;15.95;;;11.95;;
59016;SDS011;44800;55.600;38.134;2023-08-06T12:53:17;16.55;;;12.40;;
59016;SDS011;44800;55.600;38.134;2023-08-06T12:55:47;14.25;;;11.02;;
59016;SDS011;44800;55.600;38.134;2023-08-06T12:58:16;14.50;;;11.73;;
59016;SDS011;44800;55.600;38.134;2023-08-06T13:00:45;13.80;;;11.48;;
59016;SDS011;44800;55.600;38.134;2023-08-06T13:03:13;15.68;;;11.38;;
59016;SDS011;44800;55.600;38.134;2023-08-06T13:05:42;16.98;;;12.45;;
59016;SDS011;44800;55.600;38.134;2023-08-06T13:08:11;16.25;;;11.95;;
59016;SDS011;44800;55.600;38.134;2023-08-06T13:10:41;19.50;;;11.90;;
59016;SDS011;44800;55.600;38.134;2023-08-06T13:13:09;14.48;;;11.55;;
59016;SDS011;44800;55.600;38.134;2023-08-06T13:15:38;22.02;;;11.32;;
59016;SDS011;44800;55.600;38.134;2023-08-06T13:18:07;13.73;;;11.95;;
59016;SDS011;44800;55.600;38.134;2023-08-06T13:20:37;14.75;;;11.07;;
59016;SDS011;44800;55.600;38.134;2023-08-06T13:23:06;14.23;;;11.60;;
59016;SDS011;44800;55.600;38.134;2023-08-06T13:25:35;17.65;;;11.82;;
59016;SDS011;44800;55.600;38.134;2023-08-06T13:28:07;18.52;;;11.90;;
59016;SDS011;44800;55.600;38.134;2023-08-06T13:30:35;18.00;;;12.18;;
59016;SDS011;44800;55.600;38.134;2023-08-06T13:33:08;15.60;;;11.25;;
59016;SDS011;44800;55.600;38.134;2023-08-06T13:35:37;13.25;;;11.20;;
59016;SDS011;44800;55.600;38.134;2023-08-06T13:38:06;17.45;;;11.45;;
59016;SDS011;44800;55.600;38.134;2023-08-06T13:40:35;16.40;;;11.15;;
59016;SDS011;44800;55.600;38.134;2023-08-06T13:43:03;12.77;;;11.43;;
59016;SDS011;44800;55.600;38.134;2023-08-06T13:45:33;15.70;;;12.32;;
59016;SDS011;44800;55.600;38.134;2023-08-06T13:48:02;18.92;;;12.20;;
59016;SDS011;44800;55.600;38.134;2023-08-06T13:50:31;18.83;;;12.73;;
59016;SDS011;44800;55.600;38.134;2023-08-06T13:53:00;12.60;;;11.20;;
59016;SDS011;44800;55.600;38.134;2023-08-06T13:55:28;19.73;;;13.07;;
59016;SDS011;44800;55.600;38.134;2023-08-06T13:57:57;14.18;;;11.90;;
59016;SDS011;44800;55.600;38.134;2023-08-06T14:00:25;19.67;;;12.52;;
59016;SDS011;44800;55.600;38.134;2023-08-06T14:02:55;23.33;;;12.98;;
59016;SDS011;44800;55.600;38.134;2023-08-06T14:05:24;16.70;;;12.73;;
59016;SDS011;44800;55.600;38.134;2023-08-06T14:07:53;20.48;;;13.98;;
59016;SDS011;44800;55.600;38.134;2023-08-06T14:10:22;13.95;;;12.55;;
59016;SDS011;44800;55.600;38.134;2023-08-06T14:12:50;15.82;;;12.55;;
59016;SDS011;44800;55.600;38.134;2023-08-06T14:15:35;15.85;;;12.52;;
59016;SDS011;44800;55.600;38.134;2023-08-06T14:18:07;15.95;;;13.52;;
59016;SDS011;44800;55.600;38.134;2023-08-06T14:20:36;17.35;;;11.90;;
59016;SDS011;44800;55.600;38.134;2023-08-06T14:23:04;17.70;;;12.55;;
59016;SDS011;44800;55.600;38.134;2023-08-06T14:25:33;17.50;;;12.65;;
59016;SDS011;44800;55.600;38.134;2023-08-06T14:28:01;14.88;;;12.73;;
59016;SDS011;44800;55.600;38.134;2023-08-06T14:30:30;13.98;;;11.45;;
59016;SDS011;44800;55.600;38.134;2023-08-06T14:32:58;13.65;;;12.15;;
59016;SDS011;44800;55.600;38.134;2023-08-06T14:35:48;15.52;;;13.00;;
59016;SDS011;44800;55.600;38.134;2023-08-06T14:38:17;16.05;;;12.55;;
59016;SDS011;44800;55.600;38.134;2023-08-06T14:40:45;14.93;;;12.23;;